Main page
METAR-TAF:

METAR-TAF

Airports :

Libreville International Airport

Libreville, Gabon

latitude: 00-27N, longitude: 009-25E, elevation: 12 m

Current weather observation

The report was made 32 minutes ago, at 11:00 UTC
Wind 8 kt from the South, varying between Southeast and South/Southwest
Temperature 27°C
Humidity 74%
Pressure 1016 hPa
Visibility 10 km or more
Few clouds at a height of 1500 ft
Scattered clouds at a height of 5000 ft

METAR: FOOL 151100Z 18008KT 130V200 9999 FEW015 SCT050 27/22 Q1016 NOSIG

Time: 12:32 (11:32 UTC)

Forecast

The report was made 6 hours and 32 minutes ago, at 05:00 UTC
Forecast valid from 15 at 06 UTC to 16 at 12 UTC
Wind 8 kt from the South
Visibility 10 km or more
Scattered clouds at a height of 1000 ft
Broken clouds at a height of 3000 ft
Probability 30% :
Temporary
from 16 at 03 UTC to 16 at 06 UTC
Visibility: 4000 m
Broken clouds at a height of 800 ft
drizzle

TAF: FOOL 150500Z 1506/1612 17008KT 9999 SCT010 BKN030 PROB30 TEMPO 1603/1606 4000 DZ BKN008

Weather observations and forecasts of more than 4000 airports (METAR and TAF reports).

The available stations are represented by yellow and red dots on the map.

Hover mouse over dot to see the name of the station.

Then click to see weather observations and forecasts.

To change the map : click on the green buttons with a black cross to zoom in, on the green button with a dash to zoom out, or on the green arrows for adjacent maps.


METAR-TAF: